createdAt,value
2022-08-30T00:02:05.256Z,3.05
2022-08-30T00:04:31.886Z,2.97
2022-08-30T00:06:58.810Z,2.58
2022-08-30T00:09:25.449Z,2.72
2022-08-30T00:11:52.186Z,2.92
2022-08-30T00:14:20.434Z,2.35
2022-08-30T00:16:47.108Z,2.65
2022-08-30T00:19:13.910Z,2.58
2022-08-30T00:21:40.776Z,2.25
2022-08-30T00:24:07.459Z,2.33
2022-08-30T00:26:34.254Z,2.45
2022-08-30T00:29:00.916Z,1.83
2022-08-30T00:31:27.595Z,2.45
2022-08-30T00:33:54.235Z,3.08
2022-08-30T00:36:21.244Z,2.80
2022-08-30T00:38:47.861Z,2.33
2022-08-30T00:41:14.603Z,2.63
2022-08-30T00:43:41.243Z,2.88
2022-08-30T00:46:10.329Z,2.40
2022-08-30T00:48:43.157Z,2.80
2022-08-30T00:51:13.144Z,2.70
2022-08-30T00:53:44.563Z,2.30
2022-08-30T00:56:12.018Z,2.83
2022-08-30T00:58:42.382Z,3.10
2022-08-30T01:01:10.020Z,2.85
2022-08-30T01:03:38.397Z,2.50
2022-08-30T01:06:07.595Z,2.30
2022-08-30T01:08:35.360Z,2.70
2022-08-30T01:11:03.856Z,2.67
2022-08-30T01:13:31.484Z,2.40
2022-08-30T01:16:00.105Z,2.80
2022-08-30T01:18:27.379Z,2.38
2022-08-30T01:21:10.394Z,2.65
2022-08-30T01:23:40.430Z,2.20
2022-08-30T01:26:07.622Z,2.47
2022-08-30T01:28:34.744Z,2.35
2022-08-30T01:31:01.989Z,2.55
2022-08-30T01:33:29.123Z,2.90
2022-08-30T01:36:01.190Z,2.55
2022-08-30T01:38:34.064Z,2.80
2022-08-30T01:41:10.399Z,2.33
2022-08-30T01:43:37.017Z,2.50
2022-08-30T01:46:04.546Z,2.80
2022-08-30T01:48:31.874Z,2.65
2022-08-30T01:50:58.997Z,2.55
2022-08-30T01:53:25.632Z,2.60
2022-08-30T01:55:52.359Z,2.67
2022-08-30T01:58:18.953Z,2.60
2022-08-30T02:00:45.588Z,2.75
2022-08-30T02:03:12.365Z,2.38
2022-08-30T02:05:39.165Z,3.08
2022-08-30T02:08:05.763Z,2.95
2022-08-30T02:10:32.588Z,2.78
2022-08-30T02:12:59.766Z,2.60
2022-08-30T02:15:26.622Z,2.45
2022-08-30T02:17:53.998Z,2.65
2022-08-30T02:20:20.795Z,2.70
2022-08-30T02:22:49.314Z,2.42
2022-08-30T02:25:20.406Z,2.45
2022-08-30T02:30:14.466Z,2.70
2022-08-30T02:32:41.620Z,2.90
2022-08-30T02:35:08.657Z,2.90
2022-08-30T02:37:35.455Z,2.60
2022-08-30T02:40:02.270Z,2.47
2022-08-30T02:42:28.979Z,2.95
2022-08-30T02:44:56.830Z,2.78
2022-08-30T02:47:23.450Z,3.05
2022-08-30T02:49:50.028Z,2.60
2022-08-30T02:52:16.774Z,2.40
2022-08-30T02:54:43.514Z,2.78
2022-08-30T02:57:20.186Z,2.35
2022-08-30T02:59:48.070Z,2.80
2022-08-30T03:02:15.578Z,2.42
2022-08-30T03:04:44.969Z,2.63
2022-08-30T03:07:12.802Z,2.60
2022-08-30T03:09:39.726Z,2.40
2022-08-30T03:12:07.832Z,2.38
2022-08-30T03:14:36.349Z,2.42
2022-08-30T03:17:04.903Z,2.38
2022-08-30T03:19:31.573Z,2.90
2022-08-30T03:21:58.211Z,2.50
2022-08-30T03:24:25.906Z,2.30
2022-08-30T03:26:52.817Z,2.78
2022-08-30T03:29:19.434Z,3.00
2022-08-30T03:31:53.613Z,3.00
2022-08-30T03:34:21.928Z,2.45
2022-08-30T03:36:49.478Z,2.35
2022-08-30T03:39:16.205Z,3.00
2022-08-30T03:41:42.882Z,3.47
2022-08-30T03:44:09.554Z,2.28
2022-08-30T03:46:37.562Z,3.25
2022-08-30T03:49:05.424Z,2.70
2022-08-30T03:51:33.903Z,2.97
2022-08-30T03:54:01.754Z,2.50
2022-08-30T03:56:28.815Z,2.40
2022-08-30T03:58:55.409Z,3.10
2022-08-30T04:01:22.190Z,2.60
2022-08-30T04:03:48.857Z,3.00
2022-08-30T04:06:15.712Z,2.55
2022-08-30T04:08:43.322Z,2.80
2022-08-30T04:11:14.976Z,2.22
2022-08-30T04:13:41.566Z,2.80
2022-08-30T04:16:08.248Z,3.28
2022-08-30T04:18:36.586Z,2.83
2022-08-30T04:21:04.234Z,3.35
2022-08-30T04:23:30.868Z,2.70
2022-08-30T04:25:57.495Z,2.90
2022-08-30T04:28:24.410Z,2.80
2022-08-30T04:30:51.109Z,2.75
2022-08-30T04:33:18.025Z,2.90
2022-08-30T04:35:46.850Z,2.67
2022-08-30T04:38:14.252Z,2.92
2022-08-30T04:40:42.525Z,2.40
2022-08-30T04:43:09.842Z,3.00
2022-08-30T04:45:38.363Z,2.90
2022-08-30T04:48:05.172Z,2.70
2022-08-30T04:50:32.361Z,3.10
2022-08-30T04:52:59.650Z,2.88
2022-08-30T04:55:26.292Z,2.95
2022-08-30T04:57:53.328Z,2.95
2022-08-30T05:00:23.359Z,2.90
2022-08-30T05:02:50.069Z,2.80
2022-08-30T05:05:35.922Z,2.97
2022-08-30T05:08:02.801Z,3.17
2022-08-30T05:10:29.753Z,2.90
2022-08-30T05:12:56.589Z,2.70
2022-08-30T05:15:23.179Z,2.80
2022-08-30T05:17:49.964Z,2.78
2022-08-30T05:20:17.312Z,2.28
2022-08-30T05:22:53.664Z,2.50
2022-08-30T05:25:24.006Z,2.60
2022-08-30T05:27:51.103Z,2.72
2022-08-30T05:30:18.964Z,2.42
2022-08-30T05:32:46.101Z,2.60
2022-08-30T05:35:15.138Z,2.83
2022-08-30T05:37:42.195Z,2.60
2022-08-30T05:40:10.896Z,2.60
2022-08-30T05:42:38.554Z,2.88
2022-08-30T05:45:06.110Z,2.55
2022-08-30T05:47:32.711Z,2.67
2022-08-30T05:49:59.428Z,2.70
2022-08-30T05:52:26.043Z,2.92
2022-08-30T05:54:55.740Z,2.38
2022-08-30T05:57:22.816Z,2.90
2022-08-30T05:59:49.417Z,2.38
2022-08-30T06:02:16.114Z,2.65
2022-08-30T06:04:42.730Z,3.00
2022-08-30T06:07:12.929Z,2.72
2022-08-30T06:09:42.221Z,2.80
2022-08-30T06:12:08.912Z,2.58
2022-08-30T06:14:35.618Z,2.92
2022-08-30T06:17:02.193Z,2.60
2022-08-30T06:19:28.862Z,2.63
2022-08-30T06:21:55.682Z,2.75
2022-08-30T06:24:35.779Z,2.70
2022-08-30T06:27:10.063Z,2.40
2022-08-30T06:29:36.783Z,2.67
2022-08-30T06:32:03.781Z,2.80
2022-08-30T06:34:30.769Z,3.10
2022-08-30T06:36:57.322Z,2.80
2022-08-30T06:39:24.066Z,2.83
2022-08-30T06:41:50.765Z,2.50
2022-08-30T06:44:17.733Z,2.78
2022-08-30T06:46:44.437Z,3.00
2022-08-30T06:49:11.162Z,3.00
2022-08-30T06:51:39.749Z,2.70
2022-08-30T06:54:10.622Z,3.17
2022-08-30T06:56:40.199Z,2.72
2022-08-30T06:59:09.530Z,3.45
2022-08-30T07:01:36.280Z,2.88
2022-08-30T07:04:03.333Z,3.67
2022-08-30T07:06:32.363Z,2.97
2022-08-30T07:08:59.007Z,2.60
2022-08-30T07:11:36.941Z,3.17
2022-08-30T07:14:04.848Z,3.50
2022-08-30T07:16:31.807Z,3.25
2022-08-30T07:18:58.851Z,3.30
2022-08-30T07:21:28.850Z,2.97
2022-08-30T07:23:58.364Z,3.13
2022-08-30T07:26:33.511Z,2.67
2022-08-30T07:29:00.846Z,3.25
2022-08-30T07:31:27.598Z,2.67
2022-08-30T07:33:54.584Z,3.28
2022-08-30T07:36:22.105Z,2.90
2022-08-30T07:38:52.744Z,2.80
2022-08-30T07:41:26.330Z,3.58
2022-08-30T07:43:53.787Z,3.40
2022-08-30T07:46:21.797Z,3.80
2022-08-30T07:48:48.722Z,3.55
2022-08-30T07:51:22.230Z,3.60
2022-08-30T07:53:49.024Z,3.28
2022-08-30T07:56:16.437Z,3.50
2022-08-30T07:58:43.252Z,3.60
2022-08-30T08:01:12.299Z,3.60
2022-08-30T08:03:40.991Z,3.30
2022-08-30T08:06:09.280Z,3.90
2022-08-30T08:08:36.437Z,4.00
2022-08-30T08:11:08.697Z,3.60
2022-08-30T08:13:44.657Z,3.60
2022-08-30T08:16:22.221Z,3.50
2022-08-30T08:18:48.878Z,3.75
2022-08-30T08:21:15.634Z,3.65
2022-08-30T08:23:42.635Z,3.65
2022-08-30T08:26:09.361Z,3.70
2022-08-30T08:28:36.007Z,3.83
2022-08-30T08:31:03.609Z,3.88
2022-08-30T08:33:30.641Z,3.55
2022-08-30T08:35:57.237Z,3.78
2022-08-30T08:38:23.810Z,3.67
2022-08-30T08:41:11.116Z,3.97
2022-08-30T08:43:38.211Z,4.47
2022-08-30T08:46:30.037Z,3.80
2022-08-30T08:49:04.051Z,4.30
2022-08-30T08:54:33.051Z,4.22
2022-08-30T08:57:00.920Z,4.35
2022-08-30T08:59:27.936Z,4.63
2022-08-30T09:02:00.894Z,3.50
2022-08-30T09:04:33.897Z,3.53
2022-08-30T09:07:05.616Z,4.25
2022-08-30T09:09:40.788Z,4.22
2022-08-30T09:12:10.310Z,4.45
2022-08-30T09:14:45.976Z,4.35
2022-08-30T09:17:15.859Z,4.22
2022-08-30T09:19:42.465Z,4.15
2022-08-30T09:22:25.945Z,4.50
2022-08-30T09:24:54.623Z,4.47
2022-08-30T09:27:27.118Z,4.93
2022-08-30T09:30:18.804Z,4.45
2022-08-30T09:32:57.267Z,4.32
2022-08-30T09:35:37.034Z,4.13
2022-08-30T09:38:07.023Z,3.80
2022-08-30T09:40:38.703Z,4.07
2022-08-30T09:43:17.341Z,3.80
2022-08-30T09:45:49.677Z,4.10
2022-08-30T09:48:40.497Z,3.80
2022-08-30T09:51:10.108Z,3.90
2022-08-30T09:54:19.007Z,4.15
2022-08-30T09:56:54.864Z,3.78
2022-08-30T09:59:39.732Z,3.42
2022-08-30T10:02:28.358Z,3.40
2022-08-30T10:05:16.363Z,3.70
2022-08-30T10:08:01.914Z,3.60
2022-08-30T10:10:45.641Z,3.42
2022-08-30T10:13:28.716Z,3.20
2022-08-30T10:16:05.051Z,3.30
2022-08-30T10:18:56.030Z,3.50
2022-08-30T10:21:40.951Z,3.40
2022-08-30T10:24:20.777Z,3.10
2022-08-30T10:26:57.463Z,3.28
2022-08-30T10:29:30.693Z,3.33
2022-08-30T10:32:03.414Z,3.67
2022-08-30T10:34:40.001Z,3.00
2022-08-30T10:37:37.348Z,2.95
2022-08-30T10:40:32.089Z,3.00
2022-08-30T10:43:02.803Z,3.10
2022-08-30T10:45:32.440Z,2.85
2022-08-30T10:48:36.662Z,2.35
2022-08-30T10:51:14.318Z,2.97
2022-08-30T10:53:47.986Z,2.78
2022-08-30T10:56:21.276Z,2.80
2022-08-30T10:58:48.962Z,2.80
2022-08-30T11:01:51.389Z,3.00
2022-08-30T11:04:32.956Z,3.15
2022-08-30T11:07:18.133Z,2.95
2022-08-30T11:10:20.174Z,3.10
2022-08-30T11:13:09.333Z,3.30
2022-08-30T11:15:53.336Z,3.03
2022-08-30T11:18:21.523Z,2.97
2022-08-30T11:20:53.414Z,2.72
2022-08-30T11:23:36.345Z,3.10
2022-08-30T11:26:08.004Z,2.92
2022-08-30T11:28:41.753Z,2.92
2022-08-30T11:31:09.635Z,2.80
2022-08-30T11:33:42.685Z,2.80
2022-08-30T11:36:37.851Z,2.67
2022-08-30T11:39:44.510Z,2.88
2022-08-30T11:42:29.298Z,2.50
2022-08-30T11:45:24.704Z,2.70
2022-08-30T11:47:52.126Z,2.33
2022-08-30T11:50:40.394Z,2.97
2022-08-30T11:53:06.956Z,2.75
2022-08-30T11:55:46.162Z,2.85
2022-08-30T11:58:43.976Z,2.70
2022-08-30T12:01:40.767Z,2.80
2022-08-30T12:04:16.634Z,2.55
2022-08-30T12:07:09.614Z,2.58
2022-08-30T12:09:36.203Z,2.92
2022-08-30T12:12:32.534Z,2.47
2022-08-30T12:15:00.342Z,2.55
2022-08-30T12:18:06.706Z,2.60
2022-08-30T12:20:47.907Z,3.00
2022-08-30T12:23:44.426Z,2.80
2022-08-30T12:26:13.274Z,2.65
2022-08-30T12:28:42.167Z,2.35
2022-08-30T12:31:22.944Z,2.60
2022-08-30T12:34:01.253Z,2.40
2022-08-30T12:36:49.662Z,2.92
2022-08-30T12:39:20.509Z,2.50
2022-08-30T12:41:47.135Z,2.67
2022-08-30T12:44:25.567Z,2.50
2022-08-30T12:46:59.566Z,2.90
2022-08-30T12:49:29.714Z,2.95
2022-08-30T12:52:15.911Z,2.80
2022-08-30T12:54:44.107Z,2.47
2022-08-30T12:57:34.210Z,2.85
2022-08-30T13:00:01.846Z,2.50
2022-08-30T13:02:45.104Z,2.80
2022-08-30T13:05:42.944Z,2.70
2022-08-30T13:08:35.831Z,2.60
2022-08-30T13:11:08.270Z,2.40
2022-08-30T13:13:37.639Z,2.55
2022-08-30T13:16:20.677Z,2.50
2022-08-30T13:18:53.357Z,2.42
2022-08-30T13:21:22.658Z,2.70
2022-08-30T13:23:51.559Z,2.75
2022-08-30T13:26:23.256Z,2.30
2022-08-30T13:28:55.240Z,2.40
2022-08-30T13:31:22.622Z,2.47
2022-08-30T13:33:52.992Z,2.40
2022-08-30T13:36:28.198Z,2.38
2022-08-30T13:38:55.476Z,2.60
2022-08-30T13:41:22.246Z,2.20
2022-08-30T13:46:36.613Z,2.42
2022-08-30T13:49:42.880Z,2.47
2022-08-30T13:52:16.333Z,2.17
2022-08-30T13:54:40.825Z,2.65
2022-08-30T13:57:07.462Z,2.33
2022-08-30T13:59:34.394Z,2.22
2022-08-30T14:02:10.696Z,2.70
2022-08-30T14:04:38.423Z,2.20
2022-08-30T14:07:13.926Z,2.67
2022-08-30T14:09:46.697Z,1.90
2022-08-30T14:12:13.459Z,2.30
2022-08-30T14:14:43.278Z,2.20
2022-08-30T14:17:11.191Z,2.67
2022-08-30T14:19:39.287Z,2.30
2022-08-30T14:22:05.885Z,2.40
2022-08-30T14:24:32.478Z,2.67
2022-08-30T14:26:59.125Z,2.58
2022-08-30T14:29:29.785Z,2.45
2022-08-30T14:31:59.674Z,2.70
2022-08-30T14:34:26.607Z,2.63
2022-08-30T14:36:53.309Z,2.30
2022-08-30T14:39:21.376Z,2.45
2022-08-30T14:41:53.507Z,3.10
2022-08-30T14:44:22.872Z,2.35
2022-08-30T14:46:51.054Z,2.67
2022-08-30T14:49:19.152Z,2.47
2022-08-30T14:51:48.484Z,3.03
2022-08-30T14:54:17.710Z,2.50
2022-08-30T14:56:45.271Z,2.58
2022-08-30T14:59:12.191Z,2.35
2022-08-30T15:01:41.507Z,2.50
2022-08-30T15:04:09.765Z,3.15
2022-08-30T15:06:38.545Z,3.05
2022-08-30T15:09:09.099Z,3.03
2022-08-30T15:11:38.312Z,2.70
2022-08-30T15:14:06.453Z,2.65
2022-08-30T15:16:36.041Z,3.30
2022-08-30T15:19:05.031Z,2.70
2022-08-30T15:21:37.744Z,3.03
2022-08-30T15:24:06.114Z,2.72
2022-08-30T15:26:33.298Z,2.33
2022-08-30T15:28:59.903Z,3.10
2022-08-30T15:31:28.753Z,3.13
2022-08-30T15:33:55.471Z,2.58
2022-08-30T15:36:23.948Z,2.80
2022-08-30T15:38:55.474Z,2.78
2022-08-30T15:41:23.696Z,2.78
2022-08-30T15:43:52.853Z,2.63
2022-08-30T15:46:23.685Z,2.80
2022-08-30T15:49:00.535Z,2.78
2022-08-30T15:51:27.283Z,2.80
2022-08-30T15:53:54.426Z,2.88
2022-08-30T15:56:21.235Z,2.55
2022-08-30T15:58:48.412Z,2.75
2022-08-30T16:01:16.290Z,2.60
2022-08-30T16:03:46.803Z,2.70
2022-08-30T16:06:28.258Z,2.60
2022-08-30T16:08:55.760Z,3.08
2022-08-30T16:11:24.868Z,2.55
2022-08-30T16:13:53.605Z,2.55
2022-08-30T16:16:21.484Z,2.75
2022-08-30T16:18:53.976Z,3.08
2022-08-30T16:21:25.485Z,2.72
2022-08-30T16:23:55.158Z,2.40
2022-08-30T16:26:22.276Z,2.70
2022-08-30T16:28:49.297Z,2.50
2022-08-30T16:31:18.015Z,2.55
2022-08-30T16:33:45.321Z,2.45
2022-08-30T16:36:12.795Z,2.90
2022-08-30T16:38:40.874Z,2.45
2022-08-30T16:41:11.182Z,2.70
2022-08-30T16:43:39.667Z,2.70
2022-08-30T16:46:12.396Z,2.75
2022-08-30T16:48:41.130Z,2.70
2022-08-30T16:51:12.594Z,2.70
2022-08-30T16:53:39.863Z,2.78
2022-08-30T16:56:13.570Z,2.50
2022-08-30T16:58:41.101Z,2.38
2022-08-30T17:01:08.554Z,2.30
2022-08-30T17:03:37.645Z,2.42
2022-08-30T17:06:05.816Z,3.05
2022-08-30T17:08:33.342Z,2.83
2022-08-30T17:10:59.924Z,2.22
2022-08-30T17:13:27.010Z,2.67
2022-08-30T17:15:53.693Z,2.60
2022-08-30T17:18:20.545Z,2.75
2022-08-30T17:20:47.819Z,2.30
2022-08-30T17:23:14.909Z,2.47
2022-08-30T17:25:43.276Z,2.97
2022-08-30T17:28:10.750Z,2.58
2022-08-30T17:30:37.690Z,2.72
2022-08-30T17:33:04.570Z,2.70
2022-08-30T17:35:31.213Z,2.60
2022-08-30T17:37:58.031Z,2.65
2022-08-30T17:40:24.692Z,2.47
2022-08-30T17:42:51.502Z,2.30
2022-08-30T17:45:18.790Z,2.22
2022-08-30T17:47:45.858Z,2.50
2022-08-30T17:50:14.272Z,2.42
2022-08-30T17:52:42.166Z,2.47
2022-08-30T17:55:10.027Z,2.30
2022-08-30T17:57:37.176Z,2.50
2022-08-30T18:00:07.768Z,2.70
2022-08-30T18:02:34.801Z,2.80
2022-08-30T18:05:04.835Z,2.30
2022-08-30T18:07:31.578Z,2.70
2022-08-30T18:09:59.422Z,2.38
2022-08-30T18:12:26.165Z,3.05
2022-08-30T18:14:54.035Z,2.65
2022-08-30T18:17:21.115Z,2.75
2022-08-30T18:19:47.932Z,2.75
2022-08-30T18:22:16.490Z,3.17
2022-08-30T18:24:44.926Z,3.03
2022-08-30T18:27:12.003Z,2.80
2022-08-30T18:29:40.560Z,2.53
2022-08-30T18:32:09.198Z,2.80
2022-08-30T18:34:35.994Z,2.88
2022-08-30T18:37:02.776Z,2.80
2022-08-30T18:39:34.602Z,2.80
2022-08-30T18:42:02.105Z,2.83
2022-08-30T18:44:33.421Z,2.75
2022-08-30T18:47:03.637Z,2.60
2022-08-30T18:49:32.583Z,2.80
2022-08-30T18:52:00.479Z,2.40
2022-08-30T18:54:27.749Z,2.63
2022-08-30T18:56:54.539Z,2.20
2022-08-30T18:59:21.544Z,2.83
2022-08-30T19:01:49.118Z,2.90
2022-08-30T19:04:22.178Z,2.90
2022-08-30T19:06:55.435Z,2.80
2022-08-30T19:09:23.438Z,2.50
2022-08-30T19:11:50.021Z,3.05
2022-08-30T19:14:19.125Z,2.60
2022-08-30T19:16:45.781Z,3.00
2022-08-30T19:19:13.022Z,2.60
2022-08-30T19:21:40.187Z,2.88
2022-08-30T19:24:07.906Z,3.40
2022-08-30T19:26:35.904Z,2.88
2022-08-30T19:29:04.994Z,2.97
2022-08-30T19:31:31.893Z,3.10
2022-08-30T19:33:58.722Z,2.92
2022-08-30T19:36:25.519Z,3.17
2022-08-30T19:38:52.110Z,3.22
2022-08-30T19:41:22.396Z,2.85
2022-08-30T19:43:49.608Z,3.03
2022-08-30T19:46:16.341Z,3.20
2022-08-30T19:48:43.309Z,3.50
2022-08-30T19:51:15.177Z,3.65
2022-08-30T19:53:43.055Z,3.00
2022-08-30T19:56:09.898Z,3.25
2022-08-30T19:58:36.502Z,3.13
2022-08-30T20:01:10.557Z,2.92
2022-08-30T20:03:39.791Z,3.00
2022-08-30T20:06:07.890Z,3.08
2022-08-30T20:08:36.111Z,3.85
2022-08-30T20:11:03.020Z,3.30
2022-08-30T20:13:29.651Z,3.33
2022-08-30T20:16:00.521Z,3.13
2022-08-30T20:18:27.232Z,3.20
2022-08-30T20:20:55.309Z,3.20
2022-08-30T20:23:25.681Z,2.90
2022-08-30T20:25:54.777Z,3.13
2022-08-30T20:28:21.950Z,3.70
2022-08-30T20:30:49.628Z,3.15
2022-08-30T20:33:17.377Z,3.20
2022-08-30T20:35:48.754Z,3.50
2022-08-30T20:38:21.647Z,3.20
2022-08-30T20:40:51.263Z,3.50
2022-08-30T20:43:20.946Z,3.33
2022-08-30T20:45:48.466Z,3.08
2022-08-30T20:48:15.702Z,3.10
2022-08-30T20:50:43.314Z,3.35
2022-08-30T20:53:10.313Z,3.50
2022-08-30T20:55:47.450Z,3.45
2022-08-30T20:58:14.503Z,3.15
2022-08-30T21:00:45.622Z,4.00
2022-08-30T21:03:27.496Z,3.33
2022-08-30T21:05:55.450Z,3.63
2022-08-30T21:08:22.139Z,3.42
2022-08-30T21:10:48.821Z,3.42
2022-08-30T21:13:15.779Z,3.17
2022-08-30T21:15:46.052Z,2.80
2022-08-30T21:18:14.644Z,3.30
2022-08-30T21:20:41.692Z,3.83
2022-08-30T21:23:08.393Z,3.20
2022-08-30T21:25:39.153Z,3.38
2022-08-30T21:28:07.044Z,3.42
2022-08-30T21:30:34.882Z,3.20
2022-08-30T21:33:03.816Z,3.35
2022-08-30T21:35:48.633Z,3.35
2022-08-30T21:38:15.961Z,3.28
2022-08-30T21:40:43.198Z,3.00
2022-08-30T21:43:10.827Z,2.97
2022-08-30T21:45:42.354Z,3.10
2022-08-30T21:48:10.962Z,2.90
2022-08-30T21:50:42.687Z,3.08
2022-08-30T21:53:10.648Z,3.08
2022-08-30T21:55:37.460Z,3.30
2022-08-30T21:58:04.734Z,2.90
2022-08-30T22:00:33.649Z,3.50
2022-08-30T22:03:00.491Z,3.10
2022-08-30T22:05:27.385Z,3.47
2022-08-30T22:07:54.103Z,3.20
2022-08-30T22:10:21.224Z,3.03
2022-08-30T22:12:47.946Z,3.70
2022-08-30T22:15:15.015Z,3.15
2022-08-30T22:17:43.245Z,3.50
2022-08-30T22:20:10.378Z,3.33
2022-08-30T22:22:37.962Z,3.65
2022-08-30T22:25:04.934Z,3.00
2022-08-30T22:27:31.662Z,3.58
2022-08-30T22:29:58.254Z,3.25
2022-08-30T22:32:24.839Z,3.38
2022-08-30T22:34:51.642Z,3.30
2022-08-30T22:37:18.290Z,3.65
2022-08-30T22:39:44.968Z,3.50
2022-08-30T22:42:11.630Z,3.58
2022-08-30T22:44:40.936Z,3.60
2022-08-30T22:47:08.725Z,3.10
2022-08-30T22:49:35.355Z,3.10
2022-08-30T22:52:01.944Z,3.47
2022-08-30T22:54:28.656Z,3.83
2022-08-30T22:56:55.232Z,2.97
2022-08-30T22:59:24.372Z,3.75
2022-08-30T23:02:00.324Z,3.42
2022-08-30T23:04:27.132Z,3.17
2022-08-30T23:06:53.887Z,3.90
2022-08-30T23:09:20.513Z,3.75
2022-08-30T23:11:47.387Z,4.35
2022-08-30T23:14:14.239Z,3.65
2022-08-30T23:16:40.885Z,3.13
2022-08-30T23:19:07.535Z,3.95
2022-08-30T23:21:34.124Z,3.63
2022-08-30T23:24:19.325Z,3.70
2022-08-30T23:27:05.113Z,3.60
2022-08-30T23:29:51.576Z,3.70
2022-08-30T23:32:37.594Z,3.92
2022-08-30T23:35:29.154Z,3.42
2022-08-30T23:38:18.538Z,3.70
2022-08-30T23:41:03.991Z,3.58
2022-08-30T23:43:49.393Z,3.53
2022-08-30T23:46:34.741Z,4.28
2022-08-30T23:49:20.517Z,4.10
2022-08-30T23:52:05.647Z,3.50
2022-08-30T23:54:50.846Z,3.90
2022-08-30T23:57:36.025Z,4.10
